Bayan-Ovoo, Mongolia
Current Conditions -  °F | °C
As of 4:30 AM on Friday 30 Jan 2015 (Local Time) from ZMUB Reporting Station
Clear Clear  
Wind Chill: -26°   Ceiling: Unl
Heat Index: -26°   Visibility: 5mi
Dew Point: -33°   Wind: 2mph
Humidity: 69%   Direction: NA
Pressure: 30.36"   Gusts: NA
Location:  47.78°N, 112.12°E
Report Text: ZMUB 292030Z VRB01MPS 8000NW NSC M32/M36 Q1028 NOSIG RMK QFE662.5 67 NT
Loading
Personal Weather Stations






























Interactive Weather Map New forecast layout! Learn more

10-Day Weather Forecast

Advertisements
Track Severe Weather on mobile